首页
METAR-TAF:

METAR-TAF

机场 :

Fort McPherson, 西北特區, 加拿大

纬度: 67-24N, 经度: 134-51W, 海拔: 43米

当前天气观测

该预报发布于29分钟前的19:00 UTC
风速2节,风向东转东南
温度 -13°C
湿度 85%
气压 992 hPa
能見度: 56.3公里
多云层高于7800英尺

METAR: CZFM 191900Z 11002KT 35SM BKN078 M13/M15 A2930 RMK AC7 SLP927

时间: 12:29 (19:29 UTC)

预报

该预报发布于51分钟前的18:38 UTC
预报有效从19日的 19点(UTC)到 19日的 24点(UTC)
风速5节,风向南转南东
能見度: 10公里
多云层高于12000英尺
从 19日的 2000点(UTC)
风速5节,风向南转南东
能見度: 10公里
散云层高于2000英尺
多云层高于5000英尺
短暂存在
从 19日的 20点(UTC)到 19日的 24点(UTC)
能見度: 3.2公里
多云层高于2000英尺
阴天层高于3000英尺
小雪

TAF: CZFM 191838Z 1919/1924 15005KT P6SM BKN120 FM192000 16005KT P6SM SCT020 BKN050 TEMPO 1920/1924 2SM -SN BKN020 OVC030 RMK NXT FCST WILL BE ISSUED AT 201545Z

超过4000个机场的气象观测和天气预报(METAR&TAF报告)。

可查询的气象台以黄色和红色小点在地图上表示。

将鼠标移到小点上方,可查看气象台名称。

然后点击查看天气观测和预报。

如需切换地图:点击带黑十字的绿色按钮放大地图;点击带横线的绿色按钮缩小地图;或者点击绿色箭头查看邻近地区的地图。


METAR-TAF: